首页
METAR-TAF:

METAR-TAF

机场 :

開羅國際機場

开罗, 埃及

纬度: 30-08N, 经度: 031-24E, 海拔: 64米

当前天气观测

该预报发布于36分钟前的02:00 UTC
风速3节,风向
温度 18°C
湿度 88%
气压 1014 hPa
能見度: 2000
散云层高于2500英尺
轻雾

METAR: HECA 170200Z 01003KT 2000 BR SCT025 18/16 Q1014 NOSIG

时间: 04:36 (02:36 UTC)

预报

该预报发布于3小时和36分钟前的23:00 UTC
预报有效从17日的 00点(UTC)到 18日的 06点(UTC)
风速6节,风向东北
能見度: 7000
散云层高于2500英尺
短暂存在
从 17日的 00点(UTC)到 17日的 10点(UTC)
风速2节,风向多变
能見度: 4000
轻雾
短暂存在
从 17日的 02点(UTC)到 17日的 08点(UTC)
能見度: 2000
几率 40%
从 17日的 03点(UTC)到 17日的 07点(UTC)
能見度: 1000
几率 30%
从 17日的 04点(UTC)到 17日的 06点(UTC)
能見度: 0600

TAF: HECA 162300Z 1700/1806 04006KT 7000 SCT025 TEMPO 1700/1710 VRB02KT 4000 BR NSC TEMPO 1702/1708 2000 PROB40 1703/1707 1000 PROB30 1704/1706 0600 FG

超过4000个机场的气象观测和天气预报(METAR&TAF报告)。

可查询的气象台以黄色和红色小点在地图上表示。

将鼠标移到小点上方,可查看气象台名称。

然后点击查看天气观测和预报。

如需切换地图:点击带黑十字的绿色按钮放大地图;点击带横线的绿色按钮缩小地图;或者点击绿色箭头查看邻近地区的地图。


METAR-TAF: